Terminal Aerodrome Forecast
Issued by NWS Wilmington, OH

Current Version | Previous Version | Graphics & Text | Print | Product List | Glossary On
Versions: 1 2 3 4 5 6 7 8 9 10 11 12 13 14 15 16 17 18 19 20
023
FTUS41 KILN 211121
TAFCMH
TAF
KCMH 211121Z 2112/2212 16007KT P6SM SCT050 OVC090
     FM211500 17010KT P6SM VCSH SCT015 BKN025
     FM211900 20010KT P6SM SCT020 BKN030
     FM212200 20010KT P6SM VCSH BKN020
      TEMPO 2200/2202 5SM -SHRA BKN008 OVC030
     FM220400 25006KT P6SM SCT040=

USA.gov is the U.S. government's official web portal to all federal, state and local government web resources and services.